createdAt,value
2018-09-27T00:00:05.585Z,29.50
2018-09-27T00:02:34.094Z,26.75
2018-09-27T00:05:02.572Z,27.75
2018-09-27T00:07:31.090Z,26.75
2018-09-27T00:09:59.524Z,32.75
2018-09-27T00:12:28.001Z,29.00
2018-09-27T00:14:56.462Z,25.75
2018-09-27T00:17:24.982Z,22.00
2018-09-27T00:19:53.435Z,26.75
2018-09-27T00:22:21.887Z,26.50
2018-09-27T00:24:50.361Z,26.75
2018-09-27T00:27:18.838Z,25.00
2018-09-27T00:29:47.321Z,25.00
2018-09-27T00:32:15.788Z,23.50
2018-09-27T00:34:44.273Z,26.00
2018-09-27T00:37:12.734Z,26.75
2018-09-27T00:39:41.195Z,29.00
2018-09-27T00:42:09.668Z,29.75
2018-09-27T00:44:38.135Z,29.75
2018-09-27T00:47:06.592Z,29.75
2018-09-27T00:49:35.053Z,27.00
2018-09-27T00:52:03.518Z,24.50
2018-09-27T00:54:31.966Z,31.50
2018-09-27T00:57:00.560Z,32.75
2018-09-27T00:59:28.998Z,27.00
2018-09-27T01:01:57.474Z,28.50
2018-09-27T01:04:25.995Z,25.50
2018-09-27T01:06:54.428Z,29.75
2018-09-27T01:09:22.909Z,32.25
2018-09-27T01:11:51.331Z,26.25
2018-09-27T01:14:19.781Z,26.00
2018-09-27T01:16:48.221Z,26.75
2018-09-27T01:19:16.722Z,26.50
2018-09-27T01:21:45.201Z,26.75
2018-09-27T01:24:13.663Z,27.75
2018-09-27T01:26:42.140Z,25.00
2018-09-27T01:29:10.615Z,26.50
2018-09-27T01:31:39.070Z,30.00
2018-09-27T01:34:07.528Z,30.50
2018-09-27T01:36:35.990Z,33.25
2018-09-27T01:39:04.976Z,31.75
2018-09-27T01:41:33.471Z,26.00
2018-09-27T01:44:01.923Z,30.75
2018-09-27T01:46:31.207Z,24.75
2018-09-27T01:48:59.642Z,34.50
2018-09-27T01:51:28.126Z,27.25
2018-09-27T01:53:56.606Z,28.75
2018-09-27T01:56:25.121Z,31.75
2018-09-27T01:58:54.410Z,36.00
2018-09-27T02:01:22.866Z,31.75
2018-09-27T02:03:51.331Z,27.75
2018-09-27T02:06:19.810Z,31.00
2018-09-27T02:08:48.271Z,31.25
2018-09-27T02:11:16.737Z,30.25
2018-09-27T02:13:45.190Z,29.75
2018-09-27T02:16:13.649Z,32.75
2018-09-27T02:18:42.127Z,32.75
2018-09-27T02:21:10.795Z,32.25
2018-09-27T02:23:39.259Z,29.50
2018-09-27T02:26:07.799Z,30.25
2018-09-27T02:28:36.266Z,27.75
2018-09-27T02:31:04.715Z,33.75
2018-09-27T02:33:33.175Z,33.25
2018-09-27T02:36:01.663Z,27.25
2018-09-27T02:38:30.138Z,29.75
2018-09-27T02:40:58.603Z,19.00
2018-09-27T02:43:27.032Z,31.75
2018-09-27T02:45:55.485Z,27.00
2018-09-27T02:48:24.024Z,25.25
2018-09-27T02:50:52.526Z,30.00
2018-09-27T02:53:20.989Z,32.00
2018-09-27T02:55:49.476Z,32.25
2018-09-27T02:58:17.964Z,34.25
2018-09-27T03:00:46.995Z,29.25
2018-09-27T03:03:15.555Z,30.00
2018-09-27T03:05:44.030Z,27.25
2018-09-27T03:08:12.546Z,33.00
2018-09-27T03:10:40.999Z,31.50
2018-09-27T03:13:09.494Z,30.25
2018-09-27T03:15:37.988Z,28.75
2018-09-27T03:18:06.514Z,33.00
2018-09-27T03:20:35.024Z,33.75
2018-09-27T03:23:03.569Z,32.75
2018-09-27T03:25:32.064Z,31.75
2018-09-27T03:28:00.572Z,29.00
2018-09-27T03:30:30.035Z,29.50
2018-09-27T03:32:58.517Z,27.75
2018-09-27T03:35:27.125Z,33.50
2018-09-27T03:37:55.588Z,29.50
2018-09-27T03:40:24.640Z,28.75
2018-09-27T03:42:53.095Z,34.75
2018-09-27T03:45:21.562Z,30.25
2018-09-27T03:47:50.034Z,31.75
2018-09-27T03:50:18.472Z,34.50
2018-09-27T03:52:47.860Z,29.25
2018-09-27T03:55:16.340Z,30.25
2018-09-27T03:57:44.840Z,30.50
2018-09-27T04:00:13.298Z,29.00
2018-09-27T04:02:41.770Z,32.50
2018-09-27T04:05:11.803Z,31.75
2018-09-27T04:07:40.311Z,27.25
2018-09-27T04:10:08.820Z,31.00
2018-09-27T04:12:37.389Z,27.00
2018-09-27T04:15:06.660Z,27.25
2018-09-27T04:17:35.970Z,34.00
2018-09-27T04:20:04.500Z,30.50
2018-09-27T04:22:32.958Z,30.75
2018-09-27T04:25:01.446Z,30.00
2018-09-27T04:27:29.947Z,28.50
2018-09-27T04:29:58.443Z,28.25
2018-09-27T04:32:26.898Z,31.25
2018-09-27T04:34:55.406Z,31.00
2018-09-27T04:37:23.868Z,27.50
2018-09-27T04:39:53.350Z,26.75
2018-09-27T04:42:21.770Z,30.75
2018-09-27T04:44:50.262Z,30.00
2018-09-27T04:47:18.763Z,30.25
2018-09-27T04:49:47.327Z,33.25
2018-09-27T04:52:15.798Z,28.50
2018-09-27T04:54:44.268Z,33.00
2018-09-27T04:57:12.771Z,26.25
2018-09-27T04:59:41.229Z,30.50
2018-09-27T05:02:11.657Z,30.50
2018-09-27T05:04:40.122Z,36.50
2018-09-27T05:07:08.567Z,32.75
2018-09-27T05:09:37.081Z,30.00
2018-09-27T05:12:05.499Z,28.00
2018-09-27T05:14:33.956Z,34.25
2018-09-27T05:17:02.439Z,28.25
2018-09-27T05:19:31.022Z,30.75
2018-09-27T05:21:59.448Z,39.25
2018-09-27T05:24:28.003Z,34.75
2018-09-27T05:26:56.503Z,33.50
2018-09-27T05:29:25.040Z,32.25
2018-09-27T05:31:53.569Z,26.75
2018-09-27T05:34:22.109Z,29.50
2018-09-27T05:36:50.685Z,27.50
2018-09-27T05:39:19.249Z,38.50
2018-09-27T05:41:47.764Z,32.00
2018-09-27T05:44:16.373Z,37.50
2018-09-27T05:46:44.964Z,33.75
2018-09-27T05:49:13.444Z,32.25
2018-09-27T05:51:42.153Z,32.75
2018-09-27T05:54:13.665Z,29.50
2018-09-27T05:56:42.300Z,31.00
2018-09-27T05:59:10.867Z,29.25
2018-09-27T06:01:39.486Z,31.75
2018-09-27T06:04:08.050Z,35.00
2018-09-27T06:06:36.551Z,37.75
2018-09-27T06:09:08.168Z,27.50
2018-09-27T06:11:36.731Z,32.75
2018-09-27T06:14:05.810Z,29.50
2018-09-27T06:16:34.476Z,25.25
2018-09-27T06:19:02.979Z,26.00
2018-09-27T06:21:31.538Z,28.25
2018-09-27T06:24:00.034Z,26.50
2018-09-27T06:26:29.607Z,32.50
2018-09-27T06:28:58.125Z,33.25
2018-09-27T06:31:26.631Z,33.50
2018-09-27T06:33:55.120Z,34.00
2018-09-27T06:36:23.660Z,29.50
2018-09-27T06:38:52.227Z,32.50
2018-09-27T06:41:20.759Z,31.75
2018-09-27T06:43:49.296Z,36.25
2018-09-27T06:46:17.869Z,34.00
2018-09-27T06:48:47.502Z,31.25
2018-09-27T06:51:16.039Z,33.00
2018-09-27T06:53:44.565Z,33.25
2018-09-27T06:56:13.160Z,36.00
2018-09-27T06:58:41.526Z,32.50
2018-09-27T07:01:10.289Z,38.25
2018-09-27T07:03:38.826Z,32.00
2018-09-27T07:06:07.517Z,36.00
2018-09-27T07:08:36.087Z,35.00
2018-09-27T07:11:04.650Z,38.75
2018-09-27T07:13:33.174Z,35.50
2018-09-27T07:16:01.671Z,37.25
2018-09-27T07:18:30.624Z,41.75
2018-09-27T07:20:59.125Z,35.25
2018-09-27T07:23:27.628Z,40.75
2018-09-27T07:25:56.190Z,40.50
2018-09-27T07:28:24.705Z,40.00
2018-09-27T07:30:56.295Z,41.75
2018-09-27T07:33:24.719Z,36.50
2018-09-27T07:35:53.364Z,41.25
2018-09-27T07:38:21.944Z,40.75
2018-09-27T07:40:50.430Z,29.75
2018-09-27T07:43:19.985Z,47.25
2018-09-27T07:45:48.480Z,43.50
2018-09-27T07:48:17.051Z,36.75
2018-09-27T07:50:45.555Z,38.25
2018-09-27T07:53:14.128Z,40.00
2018-09-27T07:55:42.610Z,43.00
2018-09-27T07:58:11.132Z,37.25
2018-09-27T08:00:39.660Z,40.50
2018-09-27T08:03:08.272Z,44.75
2018-09-27T08:05:36.875Z,46.50
2018-09-27T08:08:05.463Z,44.50
2018-09-27T08:10:33.993Z,48.25
2018-09-27T08:13:02.528Z,39.50
2018-09-27T08:15:32.248Z,40.00
2018-09-27T08:18:00.877Z,48.00
2018-09-27T08:20:29.399Z,41.00
2018-09-27T08:22:57.832Z,39.75
2018-09-27T08:25:26.342Z,39.25
2018-09-27T08:27:54.846Z,48.25
2018-09-27T08:30:23.823Z,42.50
2018-09-27T08:32:52.308Z,43.00
2018-09-27T08:35:21.228Z,42.75
2018-09-27T08:37:49.788Z,43.25
2018-09-27T08:40:18.408Z,39.50
2018-09-27T08:42:46.933Z,43.50
2018-09-27T08:45:15.745Z,41.75
2018-09-27T08:47:45.813Z,40.50
2018-09-27T08:50:14.334Z,36.75
2018-09-27T08:52:43.072Z,40.00
2018-09-27T08:55:11.666Z,42.00
2018-09-27T08:57:40.215Z,43.75
2018-09-27T09:00:10.632Z,40.00
2018-09-27T09:02:39.137Z,40.00
2018-09-27T09:05:07.695Z,41.50
2018-09-27T09:07:36.234Z,38.75
2018-09-27T09:10:04.881Z,34.50
2018-09-27T09:12:33.483Z,36.75
2018-09-27T09:15:02.010Z,37.25
2018-09-27T09:17:30.521Z,36.25
2018-09-27T09:19:59.063Z,40.75
2018-09-27T09:22:28.395Z,37.50
2018-09-27T09:24:56.884Z,37.75
2018-09-27T09:27:25.354Z,35.50
2018-09-27T09:29:53.902Z,38.00
2018-09-27T09:32:22.407Z,37.00
2018-09-27T09:34:51.936Z,37.75
2018-09-27T09:37:20.499Z,41.75
2018-09-27T09:39:48.944Z,31.50
2018-09-27T09:42:17.536Z,31.25
2018-09-27T09:44:46.038Z,37.00
2018-09-27T09:47:15.523Z,33.25
2018-09-27T09:49:43.999Z,31.00
2018-09-27T09:52:12.551Z,36.75
2018-09-27T09:54:41.457Z,30.50
2018-09-27T09:57:10.026Z,29.00
2018-09-27T09:59:38.561Z,29.75
2018-09-27T10:02:07.108Z,31.00
2018-09-27T10:04:35.632Z,27.00
2018-09-27T10:07:04.234Z,26.50
2018-09-27T10:09:33.655Z,30.25
2018-09-27T10:12:02.265Z,28.50
2018-09-27T10:14:30.852Z,30.00
2018-09-27T10:16:59.335Z,27.00
2018-09-27T10:19:27.821Z,27.25
2018-09-27T10:22:01.311Z,24.25
2018-09-27T10:24:29.785Z,28.25
2018-09-27T10:27:07.518Z,28.25
2018-09-27T10:29:36.028Z,30.00
2018-09-27T10:32:05.484Z,26.00
2018-09-27T10:34:33.966Z,18.75
2018-09-27T10:37:02.456Z,24.25
2018-09-27T10:39:31.031Z,24.25
2018-09-27T10:41:59.536Z,29.00
2018-09-27T10:44:29.636Z,25.00
2018-09-27T10:46:58.167Z,22.75
2018-09-27T10:49:26.795Z,17.00
2018-09-27T10:51:55.319Z,21.50
2018-09-27T10:54:23.832Z,20.00
2018-09-27T10:56:52.350Z,19.75
2018-09-27T10:59:23.982Z,26.75
2018-09-27T11:01:52.430Z,25.50
2018-09-27T11:04:20.907Z,25.50
2018-09-27T11:06:49.384Z,25.75
2018-09-27T11:09:17.914Z,23.75
2018-09-27T11:11:46.437Z,22.00
2018-09-27T11:14:14.975Z,26.25
2018-09-27T11:16:43.484Z,27.00
2018-09-27T11:19:11.919Z,29.50
2018-09-27T11:21:40.411Z,29.00
2018-09-27T11:24:08.917Z,29.75
2018-09-27T11:26:37.443Z,24.75
2018-09-27T11:29:11.089Z,31.25
2018-09-27T11:31:44.668Z,26.75
2018-09-27T11:34:13.168Z,31.25
2018-09-27T11:36:42.510Z,27.50
2018-09-27T11:39:11.337Z,27.50
2018-09-27T11:41:39.816Z,30.50
2018-09-27T11:44:08.514Z,28.75
2018-09-27T11:46:37.011Z,32.25
2018-09-27T11:49:06.576Z,29.25
2018-09-27T11:51:35.029Z,27.00
2018-09-27T11:54:03.555Z,29.25
2018-09-27T11:56:32.100Z,27.25
2018-09-27T11:59:00.627Z,25.75
2018-09-27T12:01:29.082Z,27.50
2018-09-27T12:03:57.556Z,22.75
2018-09-27T12:06:26.123Z,22.25
2018-09-27T12:08:54.560Z,20.25
2018-09-27T12:11:23.125Z,22.00
2018-09-27T12:13:51.659Z,21.25
2018-09-27T12:16:20.158Z,18.75
2018-09-27T12:18:48.647Z,18.00
2018-09-27T12:21:18.321Z,14.00
2018-09-27T12:23:46.826Z,15.25
2018-09-27T12:26:15.326Z,11.75
2018-09-27T12:28:43.933Z,14.25
2018-09-27T12:31:12.324Z,15.50
2018-09-27T12:33:40.841Z,14.75
2018-09-27T12:36:09.296Z,15.00
2018-09-27T12:38:37.819Z,16.00
2018-09-27T12:41:06.286Z,14.00
2018-09-27T12:43:34.779Z,13.00
2018-09-27T12:46:03.346Z,16.00
2018-09-27T12:48:31.806Z,16.75
2018-09-27T12:51:00.280Z,13.00
2018-09-27T12:53:28.855Z,16.00
2018-09-27T12:55:57.384Z,14.25
2018-09-27T12:58:25.910Z,15.50
2018-09-27T13:00:54.397Z,15.75
2018-09-27T13:03:22.917Z,16.50
2018-09-27T13:05:51.461Z,18.00
2018-09-27T13:08:19.936Z,15.00
2018-09-27T13:10:48.492Z,15.00
2018-09-27T13:13:18.286Z,15.50
2018-09-27T13:15:46.569Z,15.00
2018-09-27T13:18:15.101Z,15.00
2018-09-27T13:20:43.588Z,16.00
2018-09-27T13:23:12.018Z,15.00
2018-09-27T13:25:40.550Z,18.75
2018-09-27T13:28:09.028Z,19.50
2018-09-27T13:30:37.621Z,16.00
2018-09-27T13:33:06.107Z,15.75
2018-09-27T13:35:35.502Z,14.75
2018-09-27T13:38:04.075Z,16.25
2018-09-27T13:40:32.658Z,17.25
2018-09-27T13:43:01.157Z,20.25
2018-09-27T13:45:29.691Z,14.50
2018-09-27T13:47:59.045Z,21.00
2018-09-27T13:50:27.520Z,17.50
2018-09-27T13:52:55.989Z,17.25
2018-09-27T13:55:24.859Z,19.25
2018-09-27T13:57:53.544Z,17.00
2018-09-27T14:00:22.003Z,21.50
2018-09-27T14:02:50.556Z,16.50
2018-09-27T14:05:19.102Z,18.00
2018-09-27T14:07:47.847Z,16.50
2018-09-27T14:10:16.354Z,20.00
2018-09-27T14:12:44.794Z,18.75
2018-09-27T14:15:13.304Z,20.25
2018-09-27T14:17:41.824Z,19.50
2018-09-27T14:20:10.488Z,18.75
2018-09-27T14:22:39.078Z,23.25
2018-09-27T14:25:07.620Z,23.00
2018-09-27T14:27:36.131Z,18.00
2018-09-27T14:30:04.710Z,22.50
2018-09-27T14:32:33.193Z,20.25
2018-09-27T14:35:01.755Z,23.00
2018-09-27T14:37:30.410Z,24.00
2018-09-27T14:39:58.937Z,26.50
2018-09-27T14:42:27.507Z,21.00
2018-09-27T14:44:56.141Z,22.25
2018-09-27T14:47:24.756Z,22.50
2018-09-27T14:49:53.387Z,23.25
2018-09-27T14:52:21.836Z,21.75
2018-09-27T14:54:50.363Z,23.25
2018-09-27T14:57:18.800Z,25.25
2018-09-27T14:59:47.268Z,23.25
2018-09-27T15:02:15.808Z,22.00
2018-09-27T15:04:44.432Z,23.25
2018-09-27T15:07:12.755Z,25.25
2018-09-27T15:09:41.281Z,23.25
2018-09-27T15:12:09.674Z,25.00
2018-09-27T15:14:38.149Z,26.00
2018-09-27T15:17:06.604Z,23.50
2018-09-27T15:19:35.050Z,22.25
2018-09-27T15:22:03.521Z,19.75
2018-09-27T15:24:32.004Z,22.75
2018-09-27T15:27:00.444Z,22.25
2018-09-27T15:29:29.936Z,23.00
2018-09-27T15:31:58.394Z,22.00
2018-09-27T15:34:27.079Z,21.25
2018-09-27T15:37:04.254Z,22.50
2018-09-27T15:39:33.497Z,22.25
2018-09-27T15:42:01.986Z,19.00
2018-09-27T15:44:30.710Z,23.50
2018-09-27T15:46:59.139Z,20.25
2018-09-27T15:49:27.815Z,22.75
2018-09-27T15:51:56.254Z,23.50
2018-09-27T15:54:27.284Z,20.75
2018-09-27T15:56:55.763Z,19.75
2018-09-27T15:59:24.202Z,22.50
2018-09-27T16:01:52.636Z,20.00
2018-09-27T16:04:21.082Z,25.75
2018-09-27T16:06:49.536Z,25.75
2018-09-27T16:09:18.185Z,23.50
2018-09-27T16:11:46.673Z,20.50
2018-09-27T16:14:15.118Z,21.00
2018-09-27T16:16:43.584Z,23.75
2018-09-27T16:19:12.073Z,23.50
2018-09-27T16:21:40.517Z,23.75
2018-09-27T16:24:08.977Z,20.75
2018-09-27T16:26:37.438Z,21.00
2018-09-27T16:29:05.885Z,21.50
2018-09-27T16:31:34.355Z,22.00
2018-09-27T16:34:02.788Z,20.50
2018-09-27T16:36:31.258Z,24.00
2018-09-27T16:38:59.740Z,25.25
2018-09-27T16:41:28.242Z,24.25
2018-09-27T16:43:56.624Z,20.25
2018-09-27T16:46:25.085Z,21.00
2018-09-27T16:48:53.560Z,24.25
2018-09-27T16:51:22.026Z,26.50
2018-09-27T16:53:50.527Z,26.00
2018-09-27T16:56:18.970Z,26.25
2018-09-27T16:58:47.396Z,28.75
2018-09-27T17:01:15.833Z,25.75
2018-09-27T17:03:44.295Z,26.25
2018-09-27T17:06:12.737Z,29.00
2018-09-27T17:08:41.210Z,27.25
2018-09-27T17:11:09.749Z,27.00
2018-09-27T17:13:38.173Z,27.50
2018-09-27T17:16:06.656Z,29.75
2018-09-27T17:18:35.264Z,26.00
2018-09-27T17:21:03.727Z,26.25
2018-09-27T17:23:32.271Z,26.25
2018-09-27T17:26:00.708Z,28.50
2018-09-27T17:28:29.301Z,31.25
2018-09-27T17:30:57.734Z,30.25
2018-09-27T17:33:26.164Z,30.00
2018-09-27T17:35:54.619Z,32.25
2018-09-27T17:38:23.182Z,29.25
2018-09-27T17:40:51.642Z,26.50
2018-09-27T17:43:20.120Z,33.75
2018-09-27T17:45:48.590Z,26.50
2018-09-27T17:48:17.016Z,29.50
2018-09-27T17:50:46.420Z,24.50
2018-09-27T17:53:14.956Z,25.50
2018-09-27T17:55:43.449Z,30.25
2018-09-27T17:58:11.802Z,26.50
2018-09-27T18:00:40.247Z,26.50
2018-09-27T18:03:08.721Z,29.25
2018-09-27T18:05:37.191Z,34.00
2018-09-27T18:08:05.627Z,33.50
2018-09-27T18:10:34.187Z,35.75
2018-09-27T18:13:02.661Z,28.25
2018-09-27T18:15:31.140Z,32.50
2018-09-27T18:17:59.647Z,33.75
2018-09-27T18:20:28.087Z,26.00
2018-09-27T18:22:56.559Z,27.50
2018-09-27T18:25:25.046Z,28.00
2018-09-27T18:27:53.484Z,24.75
2018-09-27T18:30:21.943Z,20.75
2018-09-27T18:32:50.673Z,27.50
2018-09-27T18:35:19.108Z,26.50
2018-09-27T18:37:47.656Z,28.00
2018-09-27T18:40:16.153Z,27.00
2018-09-27T18:42:44.618Z,27.50
2018-09-27T18:45:13.049Z,28.00
2018-09-27T18:47:41.527Z,27.00
2018-09-27T18:50:10.024Z,27.50
2018-09-27T18:52:38.471Z,29.25
2018-09-27T18:55:07.469Z,29.25
2018-09-27T18:57:35.976Z,28.50
2018-09-27T19:00:04.795Z,30.25
2018-09-27T19:02:34.331Z,27.50
2018-09-27T19:05:02.795Z,30.50
2018-09-27T19:07:31.240Z,26.75
2018-09-27T19:09:59.697Z,26.50
2018-09-27T19:12:28.174Z,28.25
2018-09-27T19:14:56.719Z,30.50
2018-09-27T19:17:25.180Z,30.00
2018-09-27T19:19:53.653Z,23.75
2018-09-27T19:22:22.111Z,26.75
2018-09-27T19:24:50.578Z,26.50
2018-09-27T19:27:19.043Z,27.00
2018-09-27T19:29:47.527Z,33.00
2018-09-27T19:32:15.967Z,34.50
2018-09-27T19:34:44.416Z,34.75
2018-09-27T19:37:12.851Z,36.00
2018-09-27T19:39:41.319Z,38.50
2018-09-27T19:42:09.743Z,40.00
2018-09-27T19:44:38.214Z,41.50
2018-09-27T19:47:07.027Z,39.50
2018-09-27T19:49:35.479Z,42.75
2018-09-27T19:52:04.180Z,43.75
2018-09-27T19:54:32.594Z,42.00
2018-09-27T19:57:01.075Z,44.25
2018-09-27T19:59:29.546Z,47.25
2018-09-27T20:01:57.986Z,48.00
2018-09-27T20:04:26.470Z,47.75
2018-09-27T20:06:54.926Z,50.75
2018-09-27T20:09:23.390Z,50.25
2018-09-27T20:11:51.803Z,50.50
2018-09-27T20:14:20.255Z,51.00
2018-09-27T20:16:48.760Z,49.50
2018-09-27T20:19:17.169Z,48.75
2018-09-27T20:21:45.634Z,52.00
2018-09-27T20:24:14.114Z,51.50
2018-09-27T20:26:42.610Z,48.25
2018-09-27T20:29:11.071Z,51.25
2018-09-27T20:31:39.579Z,50.75
2018-09-27T20:34:08.123Z,52.50
2018-09-27T20:36:36.515Z,50.25
2018-09-27T20:39:06.439Z,47.75
2018-09-27T20:41:34.927Z,54.00
2018-09-27T20:44:04.710Z,55.75
2018-09-27T20:46:33.174Z,51.75
2018-09-27T20:49:01.682Z,49.50
2018-09-27T20:51:30.122Z,53.25
2018-09-27T20:53:58.573Z,51.50
2018-09-27T20:56:27.010Z,52.75
2018-09-27T20:58:55.498Z,53.00
2018-09-27T21:01:23.951Z,49.50
2018-09-27T21:03:52.388Z,53.50
2018-09-27T21:06:20.846Z,50.00
2018-09-27T21:08:49.278Z,53.75
2018-09-27T21:11:17.718Z,54.75
2018-09-27T21:13:46.136Z,58.25
2018-09-27T21:16:15.462Z,52.75
2018-09-27T21:18:43.907Z,58.50
2018-09-27T21:21:12.322Z,53.25
2018-09-27T21:23:40.760Z,59.50
2018-09-27T21:26:09.178Z,55.25
2018-09-27T21:28:37.654Z,54.75
2018-09-27T21:31:06.141Z,51.75
2018-09-27T21:33:34.587Z,56.50
2018-09-27T21:36:03.037Z,53.00
2018-09-27T21:38:31.506Z,57.25
2018-09-27T21:40:59.913Z,57.00
2018-09-27T21:43:28.335Z,61.25
2018-09-27T21:45:56.755Z,57.25
2018-09-27T21:48:25.180Z,58.25
2018-09-27T21:50:53.613Z,58.00
2018-09-27T21:53:22.027Z,58.50
2018-09-27T21:55:50.443Z,58.00
2018-09-27T21:58:18.915Z,57.75
2018-09-27T22:00:50.996Z,61.25
2018-09-27T22:03:20.224Z,56.25
2018-09-27T22:05:48.686Z,59.25
2018-09-27T22:08:17.120Z,61.00
2018-09-27T22:10:45.609Z,61.75
2018-09-27T22:13:14.042Z,58.75
2018-09-27T22:15:42.450Z,54.50
2018-09-27T22:18:10.888Z,60.50
2018-09-27T22:20:39.303Z,56.50
2018-09-27T22:23:07.787Z,58.25
2018-09-27T22:25:36.199Z,54.25
2018-09-27T22:28:04.659Z,57.00
2018-09-27T22:30:33.123Z,55.75
2018-09-27T22:33:01.548Z,56.00
2018-09-27T22:35:29.955Z,56.25
2018-09-27T22:37:58.371Z,57.50
2018-09-27T22:40:26.818Z,57.25
2018-09-27T22:42:55.273Z,57.50
2018-09-27T22:45:23.722Z,58.25
2018-09-27T22:47:52.194Z,53.75
2018-09-27T22:50:20.579Z,55.75
2018-09-27T22:52:49.022Z,54.25
2018-09-27T22:55:17.467Z,51.25
2018-09-27T22:57:45.894Z,55.50
2018-09-27T23:00:14.331Z,51.50
2018-09-27T23:02:42.778Z,52.50
2018-09-27T23:05:11.234Z,51.75
2018-09-27T23:07:39.620Z,52.50
2018-09-27T23:10:08.095Z,52.00
2018-09-27T23:12:36.519Z,53.50
2018-09-27T23:15:05.614Z,54.25
2018-09-27T23:17:34.019Z,53.25
2018-09-27T23:20:02.521Z,54.75
2018-09-27T23:22:30.981Z,53.25
2018-09-27T23:24:59.446Z,57.00
2018-09-27T23:27:27.895Z,54.50
2018-09-27T23:29:56.354Z,52.75
2018-09-27T23:32:24.755Z,53.00
2018-09-27T23:34:53.211Z,56.00
2018-09-27T23:37:21.663Z,54.75
2018-09-27T23:39:50.064Z,51.75
2018-09-27T23:42:18.562Z,56.50
2018-09-27T23:44:47.028Z,54.75
2018-09-27T23:47:15.471Z,55.50
2018-09-27T23:49:43.897Z,57.25
2018-09-27T23:52:12.359Z,56.25
2018-09-27T23:54:40.787Z,54.50
2018-09-27T23:57:09.248Z,62.75
2018-09-27T23:59:37.710Z,60.25
